createdAt,value
2018-01-12T00:01:33.035Z,50.00
2018-01-12T00:04:00.724Z,54.57
2018-01-12T00:06:28.343Z,54.40
2018-01-12T00:08:56.839Z,57.47
2018-01-12T00:11:24.493Z,50.10
2018-01-12T00:13:52.079Z,53.97
2018-01-12T00:16:19.719Z,60.70
2018-01-12T00:18:47.415Z,51.37
2018-01-12T00:21:15.041Z,50.07
2018-01-12T00:23:42.631Z,48.17
2018-01-12T00:26:10.275Z,48.23
2018-01-12T00:28:37.932Z,49.43
2018-01-12T00:31:05.599Z,53.40
2018-01-12T00:33:33.256Z,44.80
2018-01-12T00:36:00.887Z,51.33
2018-01-12T00:38:28.468Z,47.47
2018-01-12T00:40:56.162Z,45.87
2018-01-12T00:43:23.804Z,53.13
2018-01-12T00:45:51.409Z,52.53
2018-01-12T00:48:18.996Z,49.43
2018-01-12T00:50:46.583Z,51.87
2018-01-12T00:53:14.207Z,50.47
2018-01-12T00:55:41.892Z,49.70
2018-01-12T00:58:09.512Z,46.83
2018-01-12T01:00:37.093Z,54.13
2018-01-12T01:03:04.679Z,51.53
2018-01-12T01:05:32.259Z,51.17
2018-01-12T01:07:59.923Z,48.27
2018-01-12T01:10:27.507Z,51.80
2018-01-12T01:12:55.101Z,56.57
2018-01-12T01:15:22.731Z,54.10
2018-01-12T01:17:50.371Z,48.10
2018-01-12T01:20:17.998Z,53.07
2018-01-12T01:22:45.606Z,52.60
2018-01-12T01:25:13.244Z,51.43
2018-01-12T01:27:40.825Z,53.90
2018-01-12T01:30:08.426Z,50.67
2018-01-12T01:32:36.039Z,50.23
2018-01-12T01:35:03.703Z,51.43
2018-01-12T01:37:31.299Z,56.13
2018-01-12T01:39:58.928Z,51.40
2018-01-12T01:42:26.596Z,51.00
2018-01-12T01:44:54.187Z,50.30
2018-01-12T01:47:21.775Z,47.33
2018-01-12T01:49:49.426Z,57.30
2018-01-12T01:52:17.007Z,54.97
2018-01-12T01:54:44.670Z,46.67
2018-01-12T01:57:12.251Z,51.43
2018-01-12T01:59:39.894Z,57.67
2018-01-12T02:02:07.604Z,52.57
2018-01-12T02:04:35.224Z,54.70
2018-01-12T02:07:02.871Z,52.37
2018-01-12T02:09:30.471Z,54.83
2018-01-12T02:11:58.085Z,52.37
2018-01-12T02:14:25.712Z,55.23
2018-01-12T02:16:53.295Z,56.80
2018-01-12T02:19:21.311Z,54.37
2018-01-12T02:21:48.890Z,50.73
2018-01-12T02:24:16.550Z,49.83
2018-01-12T02:26:44.171Z,54.43
2018-01-12T02:29:11.791Z,59.73
2018-01-12T02:31:39.371Z,51.03
2018-01-12T02:34:06.950Z,55.23
2018-01-12T02:36:34.531Z,55.83
2018-01-12T02:39:02.847Z,52.10
2018-01-12T02:41:31.340Z,51.53
2018-01-12T02:43:58.988Z,48.93
2018-01-12T02:46:26.651Z,56.57
2018-01-12T02:48:54.268Z,55.13
2018-01-12T02:51:22.891Z,50.63
2018-01-12T02:53:50.486Z,51.70
2018-01-12T02:56:18.114Z,50.37
2018-01-12T02:58:45.707Z,53.00
2018-01-12T03:01:13.343Z,53.50
2018-01-12T03:03:40.961Z,54.27
2018-01-12T03:06:09.359Z,53.83
2018-01-12T03:08:37.719Z,54.63
2018-01-12T03:11:06.088Z,56.80
2018-01-12T03:13:34.643Z,60.57
2018-01-12T03:16:03.102Z,50.30
2018-01-12T03:18:30.719Z,54.73
2018-01-12T03:20:59.231Z,53.77
2018-01-12T03:23:27.840Z,51.07
2018-01-12T03:25:56.323Z,53.57
2018-01-12T03:28:23.947Z,51.10
2018-01-12T03:30:52.432Z,50.10
2018-01-12T03:33:21.186Z,53.80
2018-01-12T03:35:48.804Z,47.90
2018-01-12T03:38:16.403Z,51.53
2018-01-12T03:40:44.705Z,50.63
2018-01-12T03:43:13.134Z,48.53
2018-01-12T03:45:41.664Z,55.40
2018-01-12T03:48:10.146Z,51.50
2018-01-12T03:50:38.619Z,51.00
2018-01-12T03:53:06.200Z,54.13
2018-01-12T03:55:33.775Z,49.60
2018-01-12T03:58:01.351Z,48.07
2018-01-12T04:00:28.936Z,47.77
2018-01-12T04:02:57.251Z,54.33
2018-01-12T04:05:24.840Z,47.40
2018-01-12T04:07:52.422Z,48.20
2018-01-12T04:10:20.058Z,49.17
2018-01-12T04:12:48.512Z,52.07
2018-01-12T04:15:16.915Z,49.53
2018-01-12T04:17:45.427Z,48.70
2018-01-12T04:20:13.902Z,45.67
2018-01-12T04:22:41.614Z,50.07
2018-01-12T04:25:09.193Z,49.23
2018-01-12T04:27:36.781Z,50.50
2018-01-12T04:30:04.467Z,52.40
2018-01-12T04:32:32.837Z,49.10
2018-01-12T04:35:01.327Z,52.90
2018-01-12T04:37:28.984Z,49.90
2018-01-12T04:39:56.660Z,51.23
2018-01-12T04:42:24.246Z,48.17
2018-01-12T04:44:51.830Z,51.30
2018-01-12T04:47:19.428Z,54.00
2018-01-12T04:49:47.959Z,52.83
2018-01-12T04:52:15.548Z,50.40
2018-01-12T04:54:43.151Z,49.93
2018-01-12T04:57:10.740Z,54.00
2018-01-12T04:59:38.345Z,54.47
2018-01-12T05:02:06.030Z,59.97
2018-01-12T05:04:33.698Z,55.23
2018-01-12T05:07:01.284Z,53.50
2018-01-12T05:09:28.971Z,54.13
2018-01-12T05:11:56.646Z,54.37
2018-01-12T05:14:24.229Z,62.43
2018-01-12T05:16:51.812Z,56.00
2018-01-12T05:19:19.410Z,54.00
2018-01-12T05:21:47.031Z,53.40
2018-01-12T05:24:15.525Z,47.93
2018-01-12T05:26:43.943Z,50.07
2018-01-12T05:29:12.309Z,51.03
2018-01-12T05:31:40.778Z,47.47
2018-01-12T05:34:08.380Z,49.37
2018-01-12T05:36:36.883Z,49.17
2018-01-12T05:39:04.460Z,46.93
2018-01-12T05:41:32.088Z,55.83
2018-01-12T05:43:59.669Z,49.87
2018-01-12T05:46:28.031Z,51.40
2018-01-12T05:48:56.452Z,50.80
2018-01-12T05:51:24.035Z,52.83
2018-01-12T05:53:51.768Z,49.13
2018-01-12T05:56:19.380Z,49.87
2018-01-12T05:58:47.862Z,48.70
2018-01-12T06:01:27.235Z,43.03
2018-01-12T06:04:06.547Z,46.13
2018-01-12T06:06:34.162Z,44.27
2018-01-12T06:09:01.743Z,42.07
2018-01-12T06:11:29.335Z,40.30
2018-01-12T06:13:57.616Z,41.50
2018-01-12T06:16:25.199Z,42.83
2018-01-12T06:18:53.723Z,39.20
2018-01-12T06:21:22.117Z,34.90
2018-01-12T06:23:50.490Z,34.47
2018-01-12T06:26:18.747Z,39.70
2018-01-12T06:28:46.338Z,36.27
2018-01-12T06:31:14.870Z,35.63
2018-01-12T06:33:43.356Z,31.10
2018-01-12T06:36:10.935Z,37.10
2018-01-12T06:38:39.442Z,38.30
2018-01-12T06:41:07.727Z,35.33
2018-01-12T06:43:35.391Z,32.33
2018-01-12T06:46:02.970Z,34.40
2018-01-12T06:48:30.585Z,32.80
2018-01-12T06:50:59.110Z,36.90
2018-01-12T06:53:27.479Z,33.10
2018-01-12T06:55:55.982Z,34.30
2018-01-12T06:58:24.322Z,33.13
2018-01-12T07:00:51.948Z,36.30
2018-01-12T07:03:19.530Z,33.77
2018-01-12T07:05:47.139Z,33.77
2018-01-12T07:08:14.716Z,35.53
2018-01-12T07:10:43.178Z,33.30
2018-01-12T07:13:11.743Z,34.10
2018-01-12T07:15:39.360Z,34.87
2018-01-12T07:18:07.055Z,30.93
2018-01-12T07:20:46.454Z,29.43
2018-01-12T07:23:26.027Z,30.50
2018-01-12T07:25:53.647Z,28.13
2018-01-12T07:28:21.231Z,31.20
2018-01-12T07:30:48.886Z,30.37
2018-01-12T07:33:17.175Z,30.07
2018-01-12T07:35:45.748Z,32.00
2018-01-12T07:38:13.414Z,30.10
2018-01-12T07:40:41.074Z,27.83
2018-01-12T07:43:08.660Z,31.23
2018-01-12T07:45:36.256Z,33.60
2018-01-12T07:48:03.863Z,32.60
2018-01-12T07:50:32.246Z,29.90
2018-01-12T07:53:05.600Z,31.60
2018-01-12T07:55:33.183Z,30.93
2018-01-12T07:58:00.759Z,32.70
2018-01-12T08:00:34.046Z,31.23
2018-01-12T08:03:04.448Z,30.50
2018-01-12T08:05:32.025Z,32.40
2018-01-12T08:07:59.602Z,27.83
2018-01-12T08:10:27.179Z,28.13
2018-01-12T08:12:54.767Z,32.43
2018-01-12T08:15:22.392Z,28.97
2018-01-12T08:17:49.971Z,27.63
2018-01-12T08:20:17.537Z,32.30
2018-01-12T08:22:45.112Z,29.83
2018-01-12T08:25:12.729Z,29.47
2018-01-12T08:27:40.302Z,29.83
2018-01-12T08:30:07.905Z,31.00
2018-01-12T08:32:35.482Z,29.90
2018-01-12T08:35:03.055Z,28.53
2018-01-12T08:37:33.330Z,28.37
2018-01-12T08:40:00.927Z,26.93
2018-01-12T08:42:28.570Z,29.67
2018-01-12T08:44:56.226Z,32.47
2018-01-12T08:47:23.838Z,31.10
2018-01-12T08:49:51.421Z,31.63
2018-01-12T08:52:19.150Z,31.20
2018-01-12T08:54:46.729Z,30.40
2018-01-12T08:57:14.345Z,28.83
2018-01-12T08:59:41.973Z,27.70
2018-01-12T09:02:09.553Z,31.90
2018-01-12T09:04:37.149Z,30.50
2018-01-12T09:07:05.477Z,31.07
2018-01-12T09:09:33.544Z,29.53
2018-01-12T09:12:01.506Z,31.67
2018-01-12T09:14:42.589Z,31.70
2018-01-12T09:17:10.563Z,32.50
2018-01-12T09:19:49.184Z,29.40
2018-01-12T09:22:29.454Z,33.20
2018-01-12T09:24:57.642Z,31.20
2018-01-12T09:27:25.817Z,31.97
2018-01-12T09:30:11.770Z,32.00
2018-01-12T09:32:39.387Z,32.63
2018-01-12T09:35:07.006Z,32.53
2018-01-12T09:37:40.578Z,30.13
2018-01-12T09:40:22.077Z,33.70
2018-01-12T09:42:49.802Z,32.13
2018-01-12T09:45:17.457Z,34.03
2018-01-12T09:47:56.959Z,28.40
2018-01-12T09:50:24.548Z,31.57
2018-01-12T09:52:52.235Z,29.00
2018-01-12T09:55:19.921Z,31.60
2018-01-12T09:57:47.513Z,30.73
2018-01-12T10:03:21.710Z,31.40
2018-01-12T10:05:54.260Z,31.30
2018-01-12T10:08:28.822Z,33.77
2018-01-12T10:10:56.530Z,31.53
2018-01-12T10:13:25.132Z,32.20
2018-01-12T10:15:52.718Z,27.60
2018-01-12T10:21:25.261Z,32.90
2018-01-12T10:23:52.840Z,31.17
2018-01-12T10:26:20.498Z,30.00
2018-01-12T10:28:59.970Z,31.10
2018-01-12T10:31:33.270Z,29.83
2018-01-12T10:34:07.807Z,29.43
2018-01-12T10:36:39.950Z,30.03
2018-01-12T10:39:19.598Z,30.00
2018-01-12T10:41:59.098Z,31.33
2018-01-12T10:44:26.902Z,30.20
2018-01-12T10:47:04.134Z,28.67
2018-01-12T10:49:34.678Z,29.80
2018-01-12T10:52:09.610Z,32.30
2018-01-12T10:54:37.401Z,28.70
2018-01-12T10:57:06.335Z,37.22
2018-01-12T10:59:34.955Z,32.33
2018-01-12T11:02:03.436Z,31.30
2018-01-12T11:04:31.112Z,31.97
2018-01-12T11:06:58.823Z,28.20
2018-01-12T11:09:26.451Z,31.67
2018-01-12T11:11:54.068Z,32.10
2018-01-12T11:14:21.903Z,30.90
2018-01-12T11:16:49.575Z,33.37
2018-01-12T11:19:17.195Z,33.77
2018-01-12T11:21:44.812Z,32.20
2018-01-12T11:24:12.387Z,29.07
2018-01-12T11:26:40.007Z,30.60
2018-01-12T11:29:09.966Z,31.60
2018-01-12T11:31:37.598Z,29.23
2018-01-12T11:34:05.182Z,28.63
2018-01-12T11:36:32.788Z,31.73
2018-01-12T11:39:21.012Z,29.80
2018-01-12T11:41:48.731Z,31.47
2018-01-12T11:44:16.399Z,28.60
2018-01-12T11:46:44.003Z,30.20
2018-01-12T11:49:11.609Z,29.03
2018-01-12T11:51:39.265Z,30.67
2018-01-12T11:54:06.899Z,31.07
2018-01-12T11:56:34.477Z,32.60
2018-01-12T11:59:02.185Z,28.33
2018-01-12T12:01:29.776Z,30.40
2018-01-12T12:03:57.382Z,29.73
2018-01-12T12:06:24.970Z,29.20
2018-01-12T12:08:52.573Z,28.13
2018-01-12T12:11:20.188Z,27.80
2018-01-12T12:13:47.772Z,30.00
2018-01-12T12:16:15.381Z,29.13
2018-01-12T12:18:42.963Z,28.30
2018-01-12T12:21:10.625Z,29.10
2018-01-12T12:23:38.243Z,31.67
2018-01-12T12:26:05.856Z,27.90
2018-01-12T12:28:33.466Z,29.67
2018-01-12T12:31:01.045Z,27.90
2018-01-12T12:33:29.449Z,28.57
2018-01-12T12:35:57.961Z,28.80
2018-01-12T12:38:25.547Z,27.00
2018-01-12T12:40:53.147Z,27.07
2018-01-12T12:43:20.723Z,27.57
2018-01-12T12:45:48.311Z,29.23
2018-01-12T12:48:15.886Z,30.40
2018-01-12T12:50:43.462Z,28.53
2018-01-12T12:53:11.041Z,29.30
2018-01-12T12:55:38.653Z,30.27
2018-01-12T12:58:06.230Z,27.97
2018-01-12T13:00:33.838Z,28.87
2018-01-12T13:03:01.466Z,27.90
2018-01-12T13:05:29.060Z,29.40
2018-01-12T13:07:56.650Z,30.50
2018-01-12T13:10:24.252Z,28.10
2018-01-12T13:12:51.883Z,27.90
2018-01-12T13:15:19.506Z,29.20
2018-01-12T13:17:47.124Z,29.80
2018-01-12T13:20:14.736Z,28.87
2018-01-12T13:22:42.394Z,31.17
2018-01-12T13:25:10.956Z,30.40
2018-01-12T13:27:38.542Z,30.00
2018-01-12T13:30:12.206Z,30.63
2018-01-12T13:32:39.779Z,29.03
2018-01-12T13:35:08.130Z,29.57
2018-01-12T13:37:35.715Z,29.63
2018-01-12T13:40:03.344Z,29.90
2018-01-12T13:42:31.070Z,34.50
2018-01-12T13:44:58.646Z,30.40
2018-01-12T13:47:26.304Z,32.60
2018-01-12T13:49:53.892Z,34.07
2018-01-12T13:52:21.495Z,33.00
2018-01-12T13:54:49.066Z,37.08
2018-01-12T13:57:17.555Z,32.13
2018-01-12T13:59:46.026Z,29.30
2018-01-12T14:02:13.607Z,30.40
2018-01-12T14:04:41.178Z,33.40
2018-01-12T14:07:08.754Z,33.80
2018-01-12T14:09:36.391Z,37.70
2018-01-12T14:12:04.055Z,32.50
2018-01-12T14:14:31.719Z,29.70
2018-01-12T14:16:59.301Z,31.50
2018-01-12T14:19:26.903Z,31.77
2018-01-12T14:21:54.483Z,31.63
2018-01-12T14:24:22.062Z,30.90
2018-01-12T14:26:49.691Z,33.27
2018-01-12T14:29:17.386Z,34.13
2018-01-12T14:31:45.004Z,33.67
2018-01-12T14:34:12.583Z,31.93
2018-01-12T14:36:40.153Z,34.63
2018-01-12T14:39:07.743Z,34.77
2018-01-12T14:41:35.362Z,34.33
2018-01-12T14:44:02.942Z,33.47
2018-01-12T14:46:30.589Z,32.80
2018-01-12T14:48:58.164Z,32.43
2018-01-12T14:51:25.818Z,33.27
2018-01-12T14:53:53.502Z,34.43
2018-01-12T14:56:21.086Z,36.50
2018-01-12T14:58:48.660Z,32.50
2018-01-12T15:01:16.280Z,34.90
2018-01-12T15:03:44.666Z,35.77
2018-01-12T15:06:13.033Z,34.40
2018-01-12T15:08:41.490Z,34.97
2018-01-12T15:11:09.062Z,36.63
2018-01-12T15:13:36.722Z,37.13
2018-01-12T15:16:04.298Z,34.37
2018-01-12T15:18:31.874Z,36.07
2018-01-12T15:20:59.455Z,38.30
2018-01-12T15:23:27.051Z,40.20
2018-01-12T15:25:54.639Z,39.83
2018-01-12T15:28:22.374Z,37.00
2018-01-12T15:30:49.958Z,34.60
2018-01-12T15:33:17.654Z,39.63
2018-01-12T15:35:45.226Z,37.30
2018-01-12T15:38:12.804Z,36.07
2018-01-12T15:40:40.390Z,35.67
2018-01-12T15:43:07.963Z,36.03
2018-01-12T15:45:35.542Z,44.83
2018-01-12T15:48:03.187Z,39.70
2018-01-12T15:50:30.882Z,36.93
2018-01-12T15:52:58.481Z,37.80
2018-01-12T15:55:26.225Z,33.90
2018-01-12T15:57:53.883Z,35.43
2018-01-12T16:00:21.461Z,37.40
2018-01-12T16:02:49.040Z,35.77
2018-01-12T16:05:16.683Z,37.90
2018-01-12T16:07:44.310Z,38.40
2018-01-12T16:10:14.604Z,35.63
2018-01-12T16:12:42.226Z,36.60
2018-01-12T16:15:09.863Z,36.70
2018-01-12T16:17:38.451Z,39.63
2018-01-12T16:20:06.118Z,37.47
2018-01-12T16:22:33.771Z,40.50
2018-01-12T16:25:01.445Z,38.97
2018-01-12T16:27:29.105Z,37.47
2018-01-12T16:29:57.385Z,38.13
2018-01-12T16:32:24.967Z,38.23
2018-01-12T16:34:52.545Z,40.77
2018-01-12T16:37:21.192Z,36.87
2018-01-12T16:39:48.770Z,36.87
2018-01-12T16:42:16.347Z,35.73
2018-01-12T16:44:43.927Z,40.50
2018-01-12T16:47:11.513Z,41.00
2018-01-12T16:49:39.104Z,38.43
2018-01-12T16:52:06.758Z,37.83
2018-01-12T16:54:34.341Z,36.37
2018-01-12T16:57:01.946Z,36.17
2018-01-12T16:59:29.525Z,36.20
2018-01-12T17:01:57.098Z,37.97
2018-01-12T17:04:24.734Z,36.07
2018-01-12T17:06:52.314Z,38.40
2018-01-12T17:09:19.986Z,39.60
2018-01-12T17:11:47.562Z,35.27
2018-01-12T17:14:15.134Z,37.40
2018-01-12T17:16:42.707Z,36.90
2018-01-12T17:19:10.279Z,35.00
2018-01-12T17:21:37.854Z,34.57
2018-01-12T17:24:05.443Z,33.80
2018-01-12T17:26:33.013Z,35.70
2018-01-12T17:29:00.594Z,36.17
2018-01-12T17:31:28.207Z,34.90
2018-01-12T17:33:55.796Z,36.23
2018-01-12T17:36:23.375Z,36.37
2018-01-12T17:38:51.175Z,36.40
2018-01-12T17:41:18.755Z,37.77
2018-01-12T17:43:46.339Z,37.60
2018-01-12T17:46:14.018Z,40.67
2018-01-12T17:48:42.518Z,40.10
2018-01-12T17:51:10.102Z,39.23
2018-01-12T17:53:37.718Z,36.43
2018-01-12T17:56:05.336Z,39.00
2018-01-12T17:58:33.093Z,40.00
2018-01-12T18:01:00.679Z,40.97
2018-01-12T18:03:28.378Z,41.00
2018-01-12T18:05:55.981Z,35.87
2018-01-12T18:08:23.559Z,39.70
2018-01-12T18:10:51.149Z,36.33
2018-01-12T18:13:18.739Z,41.43
2018-01-12T18:15:46.324Z,37.33
2018-01-12T18:18:14.014Z,39.13
2018-01-12T18:20:41.656Z,40.37
2018-01-12T18:23:09.238Z,38.40
2018-01-12T18:25:36.899Z,41.70
2018-01-12T18:28:04.520Z,39.57
2018-01-12T18:30:32.118Z,37.00
2018-01-12T18:32:59.695Z,40.20
2018-01-12T18:35:27.279Z,40.80
2018-01-12T18:37:54.930Z,43.50
2018-01-12T18:40:22.525Z,40.77
2018-01-12T18:42:50.163Z,39.50
2018-01-12T18:45:17.818Z,37.10
2018-01-12T18:47:45.491Z,39.77
2018-01-12T18:50:13.147Z,36.23
2018-01-12T18:52:40.810Z,39.27
2018-01-12T18:55:09.465Z,40.97
2018-01-12T18:57:37.106Z,40.17
2018-01-12T19:00:05.699Z,41.77
2018-01-12T19:02:34.330Z,44.50
2018-01-12T19:05:01.923Z,40.53
2018-01-12T19:07:29.602Z,38.27
2018-01-12T19:09:57.186Z,41.50
2018-01-12T19:12:25.712Z,41.00
2018-01-12T19:14:54.490Z,40.30
2018-01-12T19:17:22.084Z,39.03
2018-01-12T19:19:49.711Z,42.50
2018-01-12T19:22:17.359Z,40.83
2018-01-12T19:24:45.088Z,39.30
2018-01-12T19:27:12.680Z,41.00
2018-01-12T19:29:40.363Z,40.87
2018-01-12T19:32:08.026Z,39.80
2018-01-12T19:34:35.692Z,38.83
2018-01-12T19:37:03.350Z,37.90
2018-01-12T19:39:31.015Z,39.07
2018-01-12T19:41:58.618Z,41.10
2018-01-12T19:44:26.198Z,41.30
2018-01-12T19:46:53.878Z,40.30
2018-01-12T19:49:21.718Z,37.87
2018-01-12T19:51:49.326Z,40.57
2018-01-12T19:54:16.906Z,40.70
2018-01-12T19:56:44.552Z,39.50
2018-01-12T19:59:12.238Z,43.67
2018-01-12T20:01:39.826Z,44.90
2018-01-12T20:04:08.384Z,37.97
2018-01-12T20:06:36.015Z,40.87
2018-01-12T20:09:04.336Z,42.97
2018-01-12T20:11:32.646Z,41.73
2018-01-12T20:14:01.057Z,43.50
2018-01-12T20:16:28.691Z,42.97
2018-01-12T20:18:56.274Z,47.67
2018-01-12T20:21:23.858Z,44.50
2018-01-12T20:23:51.439Z,45.53
2018-01-12T20:26:19.018Z,42.17
2018-01-12T20:28:46.661Z,46.07
2018-01-12T20:31:14.241Z,45.37
2018-01-12T20:33:41.822Z,46.03
2018-01-12T20:36:09.568Z,45.30
2018-01-12T20:38:37.146Z,45.33
2018-01-12T20:41:04.731Z,47.23
2018-01-12T20:43:32.314Z,44.80
2018-01-12T20:45:59.938Z,44.90
2018-01-12T20:48:27.526Z,47.23
2018-01-12T20:50:55.105Z,52.07
2018-01-12T20:53:22.782Z,46.57
2018-01-12T20:55:50.405Z,46.80
2018-01-12T20:58:18.066Z,44.17
2018-01-12T21:00:45.683Z,45.70
2018-01-12T21:03:13.334Z,46.07
2018-01-12T21:05:40.923Z,47.23
2018-01-12T21:08:08.543Z,47.00
2018-01-12T21:10:36.152Z,46.07
2018-01-12T21:13:04.021Z,46.10
2018-01-12T21:15:31.598Z,48.47
2018-01-12T21:17:59.178Z,46.40
2018-01-12T21:20:26.846Z,49.60
2018-01-12T21:22:54.422Z,50.40
2018-01-12T21:25:22.027Z,50.20
2018-01-12T21:27:49.724Z,45.00
2018-01-12T21:30:17.420Z,47.73
2018-01-12T21:32:45.047Z,47.03
2018-01-12T21:35:12.631Z,50.73
2018-01-12T21:37:40.271Z,51.77
2018-01-12T21:40:07.902Z,47.77
2018-01-12T21:42:35.482Z,46.17
2018-01-12T21:45:03.874Z,49.40
2018-01-12T21:47:32.356Z,44.50
2018-01-12T21:50:00.710Z,47.57
2018-01-12T21:52:28.366Z,45.90
2018-01-12T21:54:56.031Z,48.10
2018-01-12T21:57:23.702Z,46.37
2018-01-12T21:59:51.383Z,48.60
2018-01-12T22:02:19.018Z,48.50
2018-01-12T22:04:46.715Z,46.17
2018-01-12T22:07:14.379Z,46.00
2018-01-12T22:09:42.466Z,47.17
2018-01-12T22:12:11.102Z,52.33
2018-01-12T22:14:38.684Z,46.07
2018-01-12T22:17:06.323Z,50.47
2018-01-12T22:19:34.027Z,45.90
2018-01-12T22:22:01.657Z,44.43
2018-01-12T22:24:29.350Z,45.33
2018-01-12T22:26:56.943Z,43.70
2018-01-12T22:29:24.542Z,49.70
2018-01-12T22:31:52.130Z,47.10
2018-01-12T22:34:19.778Z,51.10
2018-01-12T22:36:47.362Z,47.10
2018-01-12T22:39:15.023Z,46.20
2018-01-12T22:41:42.601Z,56.40
2018-01-12T22:44:10.241Z,51.10
2018-01-12T22:46:38.016Z,47.57
2018-01-12T22:49:06.194Z,49.03
2018-01-12T22:51:33.774Z,48.20
2018-01-12T22:54:01.406Z,46.20
2018-01-12T22:56:29.155Z,44.47
2018-01-12T22:58:56.886Z,46.60
2018-01-12T23:01:24.499Z,45.50
2018-01-12T23:03:52.158Z,50.67
2018-01-12T23:06:19.826Z,47.43
2018-01-12T23:08:47.458Z,44.23
2018-01-12T23:11:15.149Z,44.43
2018-01-12T23:13:42.773Z,49.90
2018-01-12T23:16:10.358Z,47.23
2018-01-12T23:18:38.034Z,47.93
2018-01-12T23:21:05.622Z,42.67
2018-01-12T23:23:33.234Z,44.10
2018-01-12T23:26:00.922Z,47.63
2018-01-12T23:28:28.555Z,45.27
2018-01-12T23:30:56.266Z,48.00
2018-01-12T23:33:23.937Z,45.87
2018-01-12T23:35:51.546Z,47.40
2018-01-12T23:38:19.238Z,45.97
2018-01-12T23:40:47.001Z,45.90
2018-01-12T23:43:14.614Z,44.67
2018-01-12T23:45:42.241Z,44.00
2018-01-12T23:48:09.823Z,46.73
2018-01-12T23:50:38.189Z,44.90
2018-01-12T23:53:05.775Z,45.80
2018-01-12T23:55:33.353Z,43.83
2018-01-12T23:58:00.938Z,41.80
